Daily Weather Observations for Burdell (Townsville)
For Friday 22nd February 2019

This table is designed for ease of comparison to Bureau of Meteorology recorded weather data.

Station Details Name: BURDELL Lat: -19.24 Lon: 146.69 Height: 8.5 m
Date/Time
EST
Temp
°C
App
Temp
°C
Dew
Point
°C
Rel
Hum
%
Delta-T
°C
Wind Press
QNH
hPa
Press
MSL
hPa
Rain since
9am
mm
Dir  Spd
km/h
Gust
km/h
Spd
kts
Gust
kts
22/11:30pm 27.9 33.5 25.1 85 2.1 SE 7 13 4 7 1007.7 1007.7 0.0
22/11:00pm 27.8 33.9 25.2 86 1.9 ENE 4 5 2 3 1007.6 1007.6 0.0
22/10:30pm 27.7 34.0 25.3 87 1.8 ENE 2 5 1 3 1007.5 1007.5 0.0
22/10:00pm 27.6 33.9 25.3 88 1.7 NE 2 2 1 1 1007.1 1007.1 0.0
22/09:30pm 27.4 33.6 25.1 88 1.7 ENE 1 2 1 1 1006.7 1006.7 0.0
22/09:00pm 27.4 33.7 25.0 87 1.8 NE 1 2 0 1 1006.5 1006.5 0.0
22/08:30pm 27.4 33.7 24.8 86 1.9 ENE 1 2 0 1 1006.2 1006.2 0.0
22/08:00pm 27.6 33.7 24.8 85 2.1 ENE 3 5 1 3 1005.8 1005.8 0.0
22/07:30pm 27.8 33.9 24.8 84 2.2 ENE 3 8 2 4 1005.1 1005.1 0.0
22/07:00pm 28.3 34.2 24.9 82 2.5 ENE 4 8 2 4 1004.6 1004.6 0.0
22/06:30pm 29.1 35.0 25.3 80 2.8 NE 9 16 5 9 1004.2 1004.2 0.0
22/06:00pm 29.8 36.5 25.5 78 3.2 NE 14 21 7 11 1003.9 1003.9 0.0
22/05:30pm 31.0 38.3 25.8 75 3.9 ENE 16 21 9 11 1004.0 1004.0 0.0
22/05:00pm 31.9 40.1 25.7 71 4.6 NE 18 26 10 14 1003.7 1003.7 0.0
22/04:30pm 32.3 41.3 26.1 70 4.6 NE 17 29 9 16 1003.8 1003.8 0.0
22/04:00pm 32.7 42.1 26.3 69 4.8 NE 17 23 9 13 1003.9 1003.9 0.0
22/03:30pm 32.3 41.7 26.4 71 4.4 NE 18 23 10 13 1003.8 1003.8 0.0
22/03:00pm 32.3 41.7 26.4 73 4.4 NE 17 21 9 11 1004.3 1004.3 0.0
22/02:30pm 32.8 43.3 26.8 71 4.5 ENE 23 32 12 17 1004.2 1004.2 0.0
22/02:00pm 33.3 44.6 27.2 72 4.6 ENE 24 34 13 18 1004.5 1004.5 0.0
22/01:30pm 33.4 45.2 27.4 71 4.6 NE 22 29 12 16 1004.5 1004.5 0.0
22/01:00pm 33.6 45.0 27.1 69 4.9 NE 18 26 10 14 1004.7 1004.7 0.0
22/12:30pm 32.2 42.3 27.0 75 3.9 NE 16 21 8 11 1005.0 1005.0 0.0
22/12:00pm 31.2 40.5 26.8 79 3.3 NNE 16 21 9 11 1005.2 1005.2 0.0
22/11:30am 31.5 41.5 27.1 78 3.3 N 15 21 8 11 1005.2 1005.2 0.0
22/11:00am 31.2 40.5 26.8 78 3.3 N 14 18 8 10 1005.3 1005.3 0.0
22/10:30am 31.6 41.1 26.8 76 3.6 N 14 23 8 13 1005.1 1005.1 0.0
22/10:00am 31.3 40.8 26.8 77 3.4 N 10 13 5 7 1005.0 1005.0 0.0
22/09:30am 30.8 39.5 26.5 78 3.2 NNW 4 5 2 3 1004.9 1004.9 0.0
22/09:00am 30.3 38.0 26.1 79 3.1 NNW 4 8 2 4 1004.6 1004.6 0.0
22/08:30am 29.4 35.9 25.6 80 2.8 W 5 8 3 4 1004.4 1004.4 0.0
22/08:00am 28.0 33.3 25.0 84 2.2 SSW 6 10 3 6 1004.1 1004.1 0.0
22/07:30am 26.3 32.4 24.9 93 1.0 SW 1 2 1 1 1004.0 1004.0 0.0
22/07:00am 24.6 30.0 23.8 96 0.6 WSW 1 2 1 1 1003.6 1003.6 0.0
22/06:30am 23.8 29.0 22.9 95 0.6 CALM 0 0 0 0 1003.4 1003.4 0.0
22/06:00am 23.9 29.1 23.0 95 0.6 S 1 2 0 1 1003.2 1003.2 0.0
22/05:30am 23.9 28.8 22.9 94 0.7 S 2 2 1 1 1002.7 1002.7 0.0
22/05:00am 23.8 28.7 22.6 93 0.9 S 1 2 0 1 1002.2 1002.2 0.0
22/04:30am 24.1 29.3 22.9 93 0.9 CALM 0 0 0 0 1002.0 1002.0 0.0
22/04:00am 24.2 29.5 23.2 94 0.7 CALM 0 0 0 0 1001.8 1001.8 0.0
22/03:30am 24.7 30.0 23.3 92 1.0 S 1 2 0 1 1001.8 1001.8 0.0
22/03:00am 25.1 30.9 23.9 93 0.9 CALM 0 0 0 0 1001.9 1001.9 0.0
22/02:30am 25.3 31.0 23.7 91 1.2 CALM 0 0 0 0 1002.1 1002.1 0.0
22/02:00am 25.3 30.8 23.5 90 1.3 CALM 0 0 0 0 1002.3 1002.3 0.0
22/01:30am 25.7 31.4 23.9 90 1.3 SW 0 2 0 1 1002.7 1002.7 0.0
22/01:00am 25.9 31.5 24.1 90 1.3 WSW 2 5 1 3 1002.9 1002.9 0.0
22/12:30am 26.3 32.1 24.5 90 1.3 SW 3 5 2 3 1003.4 1003.4 0.0
22/12:00am 26.4 32.0 24.6 90 1.3 W 4 8 2 4 1003.7 1003.7 0.0
 


NOTE: The apparent temperature specified in the table above is calculated using both the Heat Index and Steadman method. This differs to the Bureau of Meteorology's calculation which uses the Steadman method alone.